sensor_id;sensor_type;location;lat;lon;timestamp;temperature;humidity
32614;DHT22;19031;51.400;6.770;2023-07-20T00:01:51;18.30;99.90
32614;DHT22;19031;51.400;6.770;2023-07-20T00:04:16;18.30;99.90
32614;DHT22;19031;51.400;6.770;2023-07-20T00:06:42;18.20;99.90
32614;DHT22;19031;51.400;6.770;2023-07-20T00:09:07;18.20;99.90
32614;DHT22;19031;51.400;6.770;2023-07-20T00:11:35;18.20;99.90
32614;DHT22;19031;51.400;6.770;2023-07-20T00:14:00;18.20;99.90
32614;DHT22;19031;51.400;6.770;2023-07-20T00:16:26;18.10;99.90
32614;DHT22;19031;51.400;6.770;2023-07-20T00:18:51;18.20;99.90
32614;DHT22;19031;51.400;6.770;2023-07-20T00:21:16;18.10;99.90
32614;DHT22;19031;51.400;6.770;2023-07-20T00:23:42;18.10;99.90
32614;DHT22;19031;51.400;6.770;2023-07-20T00:26:07;17.90;99.90
32614;DHT22;19031;51.400;6.770;2023-07-20T00:28:33;18.00;99.90
32614;DHT22;19031;51.400;6.770;2023-07-20T00:30:59;18.00;99.90
32614;DHT22;19031;51.400;6.770;2023-07-20T00:33:24;17.90;99.90
32614;DHT22;19031;51.400;6.770;2023-07-20T00:35:50;17.90;99.90
32614;DHT22;19031;51.400;6.770;2023-07-20T00:38:16;17.80;99.90
32614;DHT22;19031;51.400;6.770;2023-07-20T00:40:41;17.80;99.90
32614;DHT22;19031;51.400;6.770;2023-07-20T00:43:07;17.80;99.90
32614;DHT22;19031;51.400;6.770;2023-07-20T00:45:33;17.80;99.90
32614;DHT22;19031;51.400;6.770;2023-07-20T00:47:59;17.80;99.90
32614;DHT22;19031;51.400;6.770;2023-07-20T00:50:25;17.60;99.90
32614;DHT22;19031;51.400;6.770;2023-07-20T00:52:51;17.80;99.90
32614;DHT22;19031;51.400;6.770;2023-07-20T00:55:18;17.70;99.90
32614;DHT22;19031;51.400;6.770;2023-07-20T00:57:43;17.80;99.90
32614;DHT22;19031;51.400;6.770;2023-07-20T01:00:09;17.80;99.90
32614;DHT22;19031;51.400;6.770;2023-07-20T01:02:35;17.80;99.90
32614;DHT22;19031;51.400;6.770;2023-07-20T01:05:02;17.80;99.90
32614;DHT22;19031;51.400;6.770;2023-07-20T01:07:35;17.90;99.90
32614;DHT22;19031;51.400;6.770;2023-07-20T01:12:41;17.90;99.90
32614;DHT22;19031;51.400;6.770;2023-07-20T01:15:07;17.80;99.90
32614;DHT22;19031;51.400;6.770;2023-07-20T01:17:33;17.90;99.90
32614;DHT22;19031;51.400;6.770;2023-07-20T01:19:59;17.90;99.90
32614;DHT22;19031;51.400;6.770;2023-07-20T01:27:27;18.10;99.90
32614;DHT22;19031;51.400;6.770;2023-07-20T01:30:05;18.10;99.90
32614;DHT22;19031;51.400;6.770;2023-07-20T01:32:33;18.10;99.90
32614;DHT22;19031;51.400;6.770;2023-07-20T01:35:00;18.10;99.90
32614;DHT22;19031;51.400;6.770;2023-07-20T01:37:26;17.90;99.90
32614;DHT22;19031;51.400;6.770;2023-07-20T01:39:54;17.90;99.90
32614;DHT22;19031;51.400;6.770;2023-07-20T01:42:21;17.80;99.90
32614;DHT22;19031;51.400;6.770;2023-07-20T01:44:47;17.70;99.90
32614;DHT22;19031;51.400;6.770;2023-07-20T01:47:12;17.70;99.90
32614;DHT22;19031;51.400;6.770;2023-07-20T01:49:38;17.60;99.90
32614;DHT22;19031;51.400;6.770;2023-07-20T01:52:03;17.60;99.90
32614;DHT22;19031;51.400;6.770;2023-07-20T01:54:29;17.50;99.90
32614;DHT22;19031;51.400;6.770;2023-07-20T01:56:54;17.50;99.90
32614;DHT22;19031;51.400;6.770;2023-07-20T01:59:20;17.50;99.90
32614;DHT22;19031;51.400;6.770;2023-07-20T02:01:46;17.50;99.90
32614;DHT22;19031;51.400;6.770;2023-07-20T02:04:11;17.40;99.90
32614;DHT22;19031;51.400;6.770;2023-07-20T02:06:36;17.30;99.90
32614;DHT22;19031;51.400;6.770;2023-07-20T02:09:02;17.40;99.90
32614;DHT22;19031;51.400;6.770;2023-07-20T02:11:28;17.40;99.90
32614;DHT22;19031;51.400;6.770;2023-07-20T02:13:53;17.40;99.90
32614;DHT22;19031;51.400;6.770;2023-07-20T02:16:19;17.30;99.90
32614;DHT22;19031;51.400;6.770;2023-07-20T02:18:44;17.30;99.90
32614;DHT22;19031;51.400;6.770;2023-07-20T02:21:09;17.30;99.90
32614;DHT22;19031;51.400;6.770;2023-07-20T02:23:35;17.10;99.90
32614;DHT22;19031;51.400;6.770;2023-07-20T02:26:01;17.10;99.90
32614;DHT22;19031;51.400;6.770;2023-07-20T02:28:26;17.10;99.90
32614;DHT22;19031;51.400;6.770;2023-07-20T02:30:52;17.10;99.90
32614;DHT22;19031;51.400;6.770;2023-07-20T02:33:18;17.10;99.90
32614;DHT22;19031;51.400;6.770;2023-07-20T02:35:45;17.00;99.90
32614;DHT22;19031;51.400;6.770;2023-07-20T02:38:10;16.90;99.90
32614;DHT22;19031;51.400;6.770;2023-07-20T02:40:36;17.00;99.90
32614;DHT22;19031;51.400;6.770;2023-07-20T02:43:01;16.90;99.90
32614;DHT22;19031;51.400;6.770;2023-07-20T02:45:27;16.90;99.90
32614;DHT22;19031;51.400;6.770;2023-07-20T02:47:52;16.90;99.90
32614;DHT22;19031;51.400;6.770;2023-07-20T02:50:17;17.00;99.90
32614;DHT22;19031;51.400;6.770;2023-07-20T02:52:43;16.90;99.90
32614;DHT22;19031;51.400;6.770;2023-07-20T02:55:08;16.90;99.90
32614;DHT22;19031;51.400;6.770;2023-07-20T02:57:34;16.80;99.90
32614;DHT22;19031;51.400;6.770;2023-07-20T02:59:59;16.80;99.90
32614;DHT22;19031;51.400;6.770;2023-07-20T03:02:25;16.70;99.90
32614;DHT22;19031;51.400;6.770;2023-07-20T03:04:50;16.70;99.90
32614;DHT22;19031;51.400;6.770;2023-07-20T03:07:16;16.70;99.90
32614;DHT22;19031;51.400;6.770;2023-07-20T03:09:41;16.60;99.90
32614;DHT22;19031;51.400;6.770;2023-07-20T03:12:08;16.60;99.90
32614;DHT22;19031;51.400;6.770;2023-07-20T03:14:33;16.50;99.90
32614;DHT22;19031;51.400;6.770;2023-07-20T03:16:59;16.50;99.90
32614;DHT22;19031;51.400;6.770;2023-07-20T03:19:24;16.40;99.90
32614;DHT22;19031;51.400;6.770;2023-07-20T03:21:50;16.40;99.90
32614;DHT22;19031;51.400;6.770;2023-07-20T03:24:15;16.30;99.90
32614;DHT22;19031;51.400;6.770;2023-07-20T03:26:41;16.30;99.90
32614;DHT22;19031;51.400;6.770;2023-07-20T03:29:06;16.30;99.90
32614;DHT22;19031;51.400;6.770;2023-07-20T03:31:32;16.30;99.90
32614;DHT22;19031;51.400;6.770;2023-07-20T03:33:57;16.20;99.90
32614;DHT22;19031;51.400;6.770;2023-07-20T03:36:23;16.20;99.90
32614;DHT22;19031;51.400;6.770;2023-07-20T03:38:48;16.20;99.90
32614;DHT22;19031;51.400;6.770;2023-07-20T03:41:15;16.20;99.90
32614;DHT22;19031;51.400;6.770;2023-07-20T03:43:41;16.10;99.90
32614;DHT22;19031;51.400;6.770;2023-07-20T03:46:07;16.20;99.90
32614;DHT22;19031;51.400;6.770;2023-07-20T03:48:32;16.20;99.90
32614;DHT22;19031;51.400;6.770;2023-07-20T03:50:58;16.20;99.90
32614;DHT22;19031;51.400;6.770;2023-07-20T03:53:24;16.30;99.90
32614;DHT22;19031;51.400;6.770;2023-07-20T03:55:50;16.30;99.90
32614;DHT22;19031;51.400;6.770;2023-07-20T03:58:16;16.30;99.90
32614;DHT22;19031;51.400;6.770;2023-07-20T04:00:48;16.30;99.90
32614;DHT22;19031;51.400;6.770;2023-07-20T04:03:15;16.30;99.90
32614;DHT22;19031;51.400;6.770;2023-07-20T04:05:41;16.40;99.90
32614;DHT22;19031;51.400;6.770;2023-07-20T04:08:06;16.40;99.90
32614;DHT22;19031;51.400;6.770;2023-07-20T04:10:32;16.50;99.90
32614;DHT22;19031;51.400;6.770;2023-07-20T04:12:58;16.40;99.90
32614;DHT22;19031;51.400;6.770;2023-07-20T04:15:23;16.50;99.90
32614;DHT22;19031;51.400;6.770;2023-07-20T04:17:49;16.50;99.90
32614;DHT22;19031;51.400;6.770;2023-07-20T04:20:14;16.50;99.90
32614;DHT22;19031;51.400;6.770;2023-07-20T04:22:40;16.60;99.90
32614;DHT22;19031;51.400;6.770;2023-07-20T04:25:05;16.60;99.90
32614;DHT22;19031;51.400;6.770;2023-07-20T04:27:31;16.70;99.90
32614;DHT22;19031;51.400;6.770;2023-07-20T04:30:00;16.60;99.90
32614;DHT22;19031;51.400;6.770;2023-07-20T04:32:25;16.70;99.90
32614;DHT22;19031;51.400;6.770;2023-07-20T04:34:51;16.80;99.90
32614;DHT22;19031;51.400;6.770;2023-07-20T04:37:16;16.70;99.90
32614;DHT22;19031;51.400;6.770;2023-07-20T04:39:42;16.80;99.90
32614;DHT22;19031;51.400;6.770;2023-07-20T04:42:07;16.90;99.90
32614;DHT22;19031;51.400;6.770;2023-07-20T04:44:33;16.90;99.90
32614;DHT22;19031;51.400;6.770;2023-07-20T04:46:59;16.80;99.90
32614;DHT22;19031;51.400;6.770;2023-07-20T04:49:24;16.80;99.90
32614;DHT22;19031;51.400;6.770;2023-07-20T04:51:50;16.90;99.90
32614;DHT22;19031;51.400;6.770;2023-07-20T04:54:16;16.90;99.90
32614;DHT22;19031;51.400;6.770;2023-07-20T04:56:42;16.90;99.90
32614;DHT22;19031;51.400;6.770;2023-07-20T04:59:07;16.90;99.90
32614;DHT22;19031;51.400;6.770;2023-07-20T05:01:33;16.90;99.90
32614;DHT22;19031;51.400;6.770;2023-07-20T05:03:58;17.00;99.90
32614;DHT22;19031;51.400;6.770;2023-07-20T05:06:24;17.10;99.90
32614;DHT22;19031;51.400;6.770;2023-07-20T05:08:49;16.90;99.90
32614;DHT22;19031;51.400;6.770;2023-07-20T05:11:15;17.00;99.90
32614;DHT22;19031;51.400;6.770;2023-07-20T05:13:41;17.00;99.90
32614;DHT22;19031;51.400;6.770;2023-07-20T05:16:06;17.00;99.90
32614;DHT22;19031;51.400;6.770;2023-07-20T05:18:32;17.10;99.90
32614;DHT22;19031;51.400;6.770;2023-07-20T05:20:58;17.10;99.90
32614;DHT22;19031;51.400;6.770;2023-07-20T05:23:23;17.20;99.90
32614;DHT22;19031;51.400;6.770;2023-07-20T05:25:55;17.20;99.90
32614;DHT22;19031;51.400;6.770;2023-07-20T05:28:21;17.20;99.90
32614;DHT22;19031;51.400;6.770;2023-07-20T05:30:47;17.10;99.90
32614;DHT22;19031;51.400;6.770;2023-07-20T05:33:12;17.10;99.90
32614;DHT22;19031;51.400;6.770;2023-07-20T05:35:38;17.00;99.90
32614;DHT22;19031;51.400;6.770;2023-07-20T05:38:03;16.90;99.90
32614;DHT22;19031;51.400;6.770;2023-07-20T05:40:30;16.90;99.90
32614;DHT22;19031;51.400;6.770;2023-07-20T05:42:55;16.90;99.90
32614;DHT22;19031;51.400;6.770;2023-07-20T05:45:22;16.80;99.90
32614;DHT22;19031;51.400;6.770;2023-07-20T05:47:48;16.80;99.90
32614;DHT22;19031;51.400;6.770;2023-07-20T05:50:13;16.90;99.90
32614;DHT22;19031;51.400;6.770;2023-07-20T05:52:39;17.00;99.90
32614;DHT22;19031;51.400;6.770;2023-07-20T05:55:05;17.00;99.90
32614;DHT22;19031;51.400;6.770;2023-07-20T05:57:31;17.00;99.90
32614;DHT22;19031;51.400;6.770;2023-07-20T05:59:56;17.00;99.90
32614;DHT22;19031;51.400;6.770;2023-07-20T06:02:22;17.00;99.90
32614;DHT22;19031;51.400;6.770;2023-07-20T06:04:48;17.20;99.90
32614;DHT22;19031;51.400;6.770;2023-07-20T06:07:13;17.20;99.90
32614;DHT22;19031;51.400;6.770;2023-07-20T06:09:39;17.40;99.90
32614;DHT22;19031;51.400;6.770;2023-07-20T06:12:04;17.60;99.90
32614;DHT22;19031;51.400;6.770;2023-07-20T06:14:30;17.70;99.90
32614;DHT22;19031;51.400;6.770;2023-07-20T06:16:56;17.80;99.90
32614;DHT22;19031;51.400;6.770;2023-07-20T06:19:21;17.80;99.90
32614;DHT22;19031;51.400;6.770;2023-07-20T06:21:47;17.90;99.90
32614;DHT22;19031;51.400;6.770;2023-07-20T06:24:15;18.00;99.90
32614;DHT22;19031;51.400;6.770;2023-07-20T06:26:40;18.20;99.90
32614;DHT22;19031;51.400;6.770;2023-07-20T06:29:06;18.30;99.90
32614;DHT22;19031;51.400;6.770;2023-07-20T06:31:32;18.60;99.90
32614;DHT22;19031;51.400;6.770;2023-07-20T06:33:57;18.60;99.90
32614;DHT22;19031;51.400;6.770;2023-07-20T06:36:23;18.80;99.90
32614;DHT22;19031;51.400;6.770;2023-07-20T06:38:48;18.90;99.90
32614;DHT22;19031;51.400;6.770;2023-07-20T06:41:14;19.20;99.90
32614;DHT22;19031;51.400;6.770;2023-07-20T06:43:39;19.50;99.90
32614;DHT22;19031;51.400;6.770;2023-07-20T06:46:04;19.50;99.90
32614;DHT22;19031;51.400;6.770;2023-07-20T06:48:30;19.80;99.90
32614;DHT22;19031;51.400;6.770;2023-07-20T06:50:55;19.80;99.90
32614;DHT22;19031;51.400;6.770;2023-07-20T06:53:21;19.90;99.90
32614;DHT22;19031;51.400;6.770;2023-07-20T06:55:47;19.90;99.90
32614;DHT22;19031;51.400;6.770;2023-07-20T06:58:12;19.60;99.90
32614;DHT22;19031;51.400;6.770;2023-07-20T07:00:38;19.20;99.90
32614;DHT22;19031;51.400;6.770;2023-07-20T07:03:03;19.20;99.90
32614;DHT22;19031;51.400;6.770;2023-07-20T07:05:29;19.70;99.90
32614;DHT22;19031;51.400;6.770;2023-07-20T07:08:02;20.10;99.90
32614;DHT22;19031;51.400;6.770;2023-07-20T07:10:27;20.40;99.90
32614;DHT22;19031;51.400;6.770;2023-07-20T07:12:53;20.50;99.90
32614;DHT22;19031;51.400;6.770;2023-07-20T07:15:18;20.50;99.90
32614;DHT22;19031;51.400;6.770;2023-07-20T07:17:43;20.70;99.90
32614;DHT22;19031;51.400;6.770;2023-07-20T07:20:09;20.80;99.90
32614;DHT22;19031;51.400;6.770;2023-07-20T07:22:35;20.80;99.90
32614;DHT22;19031;51.400;6.770;2023-07-20T07:25:00;21.10;99.90
32614;DHT22;19031;51.400;6.770;2023-07-20T07:27:26;21.30;99.90
32614;DHT22;19031;51.400;6.770;2023-07-20T07:29:51;21.70;99.90
32614;DHT22;19031;51.400;6.770;2023-07-20T07:32:16;21.80;99.90
32614;DHT22;19031;51.400;6.770;2023-07-20T07:34:43;22.20;99.90
32614;DHT22;19031;51.400;6.770;2023-07-20T07:37:09;22.60;99.90
32614;DHT22;19031;51.400;6.770;2023-07-20T07:39:34;22.60;99.90
32614;DHT22;19031;51.400;6.770;2023-07-20T07:41:59;22.70;99.90
32614;DHT22;19031;51.400;6.770;2023-07-20T07:44:25;22.90;99.90
32614;DHT22;19031;51.400;6.770;2023-07-20T07:46:51;23.00;99.90
32614;DHT22;19031;51.400;6.770;2023-07-20T07:49:16;23.30;99.90
32614;DHT22;19031;51.400;6.770;2023-07-20T07:51:43;23.20;99.90
32614;DHT22;19031;51.400;6.770;2023-07-20T07:54:09;23.50;99.90
32614;DHT22;19031;51.400;6.770;2023-07-20T07:56:34;23.40;99.90
32614;DHT22;19031;51.400;6.770;2023-07-20T07:59:00;23.30;99.90
32614;DHT22;19031;51.400;6.770;2023-07-20T08:01:25;23.20;99.90
32614;DHT22;19031;51.400;6.770;2023-07-20T08:03:51;23.30;99.90
32614;DHT22;19031;51.400;6.770;2023-07-20T08:06:17;23.80;99.90
32614;DHT22;19031;51.400;6.770;2023-07-20T08:08:42;24.20;99.90
32614;DHT22;19031;51.400;6.770;2023-07-20T08:11:08;24.00;99.90
32614;DHT22;19031;51.400;6.770;2023-07-20T08:13:34;24.50;99.90
32614;DHT22;19031;51.400;6.770;2023-07-20T08:16:00;24.30;99.90
32614;DHT22;19031;51.400;6.770;2023-07-20T08:18:27;24.30;99.90
32614;DHT22;19031;51.400;6.770;2023-07-20T08:20:53;24.60;99.90
32614;DHT22;19031;51.400;6.770;2023-07-20T08:23:20;24.20;99.90
32614;DHT22;19031;51.400;6.770;2023-07-20T08:25:45;24.30;99.90
32614;DHT22;19031;51.400;6.770;2023-07-20T08:28:11;24.00;99.90
32614;DHT22;19031;51.400;6.770;2023-07-20T08:30:44;23.40;99.90
32614;DHT22;19031;51.400;6.770;2023-07-20T08:33:10;23.40;99.90
32614;DHT22;19031;51.400;6.770;2023-07-20T08:35:36;23.30;99.90
32614;DHT22;19031;51.400;6.770;2023-07-20T08:38:02;23.80;99.90
32614;DHT22;19031;51.400;6.770;2023-07-20T08:40:27;24.10;99.90
32614;DHT22;19031;51.400;6.770;2023-07-20T08:42:54;24.00;99.90
32614;DHT22;19031;51.400;6.770;2023-07-20T08:45:20;24.00;99.90
32614;DHT22;19031;51.400;6.770;2023-07-20T08:47:47;23.90;99.90
32614;DHT22;19031;51.400;6.770;2023-07-20T08:50:14;23.40;99.90
32614;DHT22;19031;51.400;6.770;2023-07-20T08:52:40;23.20;99.90
32614;DHT22;19031;51.400;6.770;2023-07-20T08:55:05;23.10;99.90
32614;DHT22;19031;51.400;6.770;2023-07-20T08:57:32;23.30;99.90
32614;DHT22;19031;51.400;6.770;2023-07-20T08:59:58;23.30;99.90
32614;DHT22;19031;51.400;6.770;2023-07-20T09:02:25;23.20;99.90
32614;DHT22;19031;51.400;6.770;2023-07-20T09:04:52;23.60;99.90
32614;DHT22;19031;51.400;6.770;2023-07-20T09:07:17;23.80;99.90
32614;DHT22;19031;51.400;6.770;2023-07-20T09:09:45;24.00;99.90
32614;DHT22;19031;51.400;6.770;2023-07-20T09:12:14;24.40;99.90
32614;DHT22;19031;51.400;6.770;2023-07-20T09:14:44;24.40;99.90
32614;DHT22;19031;51.400;6.770;2023-07-20T09:17:12;24.50;99.90
32614;DHT22;19031;51.400;6.770;2023-07-20T09:19:38;25.00;99.90
32614;DHT22;19031;51.400;6.770;2023-07-20T09:22:03;25.60;99.30
32614;DHT22;19031;51.400;6.770;2023-07-20T09:24:30;25.70;99.40
32614;DHT22;19031;51.400;6.770;2023-07-20T09:26:57;26.10;96.80
32614;DHT22;19031;51.400;6.770;2023-07-20T09:29:22;26.10;97.70
32614;DHT22;19031;51.400;6.770;2023-07-20T09:32:01;26.50;96.00
32614;DHT22;19031;51.400;6.770;2023-07-20T09:34:28;26.80;94.80
32614;DHT22;19031;51.400;6.770;2023-07-20T09:36:53;26.60;92.10
32614;DHT22;19031;51.400;6.770;2023-07-20T09:39:19;26.70;92.80
32614;DHT22;19031;51.400;6.770;2023-07-20T09:41:45;26.90;92.10
32614;DHT22;19031;51.400;6.770;2023-07-20T09:44:11;27.30;94.20
32614;DHT22;19031;51.400;6.770;2023-07-20T09:46:46;27.50;88.10
32614;DHT22;19031;51.400;6.770;2023-07-20T09:49:12;27.20;87.20
32614;DHT22;19031;51.400;6.770;2023-07-20T09:51:38;28.10;90.90
32614;DHT22;19031;51.400;6.770;2023-07-20T09:54:04;28.10;82.60
32614;DHT22;19031;51.400;6.770;2023-07-20T09:56:30;28.00;84.10
32614;DHT22;19031;51.400;6.770;2023-07-20T09:58:56;27.50;83.70
32614;DHT22;19031;51.400;6.770;2023-07-20T10:01:22;27.20;85.70
32614;DHT22;19031;51.400;6.770;2023-07-20T10:03:48;27.00;85.40
32614;DHT22;19031;51.400;6.770;2023-07-20T10:06:16;27.10;90.90
32614;DHT22;19031;51.400;6.770;2023-07-20T10:08:43;27.10;88.60
32614;DHT22;19031;51.400;6.770;2023-07-20T10:11:09;27.20;86.40
32614;DHT22;19031;51.400;6.770;2023-07-20T10:13:37;27.30;84.40
32614;DHT22;19031;51.400;6.770;2023-07-20T10:16:03;26.80;90.40
32614;DHT22;19031;51.400;6.770;2023-07-20T10:18:36;26.60;84.80
32614;DHT22;19031;51.400;6.770;2023-07-20T10:21:03;26.20;82.30
32614;DHT22;19031;51.400;6.770;2023-07-20T10:23:31;26.00;88.70
32614;DHT22;19031;51.400;6.770;2023-07-20T10:25:58;26.00;87.10
32614;DHT22;19031;51.400;6.770;2023-07-20T10:28:24;25.60;81.60
32614;DHT22;19031;51.400;6.770;2023-07-20T10:30:50;25.60;90.90
32614;DHT22;19031;51.400;6.770;2023-07-20T10:33:16;25.60;89.70
32614;DHT22;19031;51.400;6.770;2023-07-20T10:35:52;25.60;90.80
32614;DHT22;19031;51.400;6.770;2023-07-20T10:38:18;25.20;90.90
32614;DHT22;19031;51.400;6.770;2023-07-20T10:40:43;25.00;93.90
32614;DHT22;19031;51.400;6.770;2023-07-20T10:43:18;25.30;92.20
32614;DHT22;19031;51.400;6.770;2023-07-20T10:45:50;25.90;93.20
32614;DHT22;19031;51.400;6.770;2023-07-20T10:50:42;27.40;82.20
32614;DHT22;19031;51.400;6.770;2023-07-20T10:53:14;27.80;80.50
32614;DHT22;19031;51.400;6.770;2023-07-20T10:55:43;28.00;79.90
32614;DHT22;19031;51.400;6.770;2023-07-20T11:00:35;29.80;74.60
32614;DHT22;19031;51.400;6.770;2023-07-20T11:03:04;29.50;72.20
32614;DHT22;19031;51.400;6.770;2023-07-20T11:07:58;30.40;67.80
32614;DHT22;19031;51.400;6.770;2023-07-20T11:10:31;30.40;64.60
32614;DHT22;19031;51.400;6.770;2023-07-20T11:15:45;30.60;61.00
32614;DHT22;19031;51.400;6.770;2023-07-20T11:18:11;30.60;64.30
32614;DHT22;19031;51.400;6.770;2023-07-20T11:20:37;30.00;60.10
32614;DHT22;19031;51.400;6.770;2023-07-20T11:23:03;30.00;62.30
32614;DHT22;19031;51.400;6.770;2023-07-20T11:25:42;29.90;63.70
32614;DHT22;19031;51.400;6.770;2023-07-20T11:28:08;30.30;61.60
32614;DHT22;19031;51.400;6.770;2023-07-20T11:30:36;30.20;58.90
32614;DHT22;19031;51.400;6.770;2023-07-20T11:33:02;30.80;61.00
32614;DHT22;19031;51.400;6.770;2023-07-20T11:35:27;31.40;55.20
32614;DHT22;19031;51.400;6.770;2023-07-20T11:37:53;31.40;55.30
32614;DHT22;19031;51.400;6.770;2023-07-20T11:40:18;31.60;58.00
32614;DHT22;19031;51.400;6.770;2023-07-20T11:42:44;31.50;53.30
32614;DHT22;19031;51.400;6.770;2023-07-20T11:45:11;31.50;55.40
32614;DHT22;19031;51.400;6.770;2023-07-20T11:47:39;31.40;54.00
32614;DHT22;19031;51.400;6.770;2023-07-20T11:50:05;31.70;54.60
32614;DHT22;19031;51.400;6.770;2023-07-20T11:52:31;32.20;53.90
32614;DHT22;19031;51.400;6.770;2023-07-20T11:54:56;31.80;51.30
32614;DHT22;19031;51.400;6.770;2023-07-20T11:57:22;31.60;52.60
32614;DHT22;19031;51.400;6.770;2023-07-20T11:59:54;31.30;54.90
32614;DHT22;19031;51.400;6.770;2023-07-20T12:02:24;31.30;55.30
32614;DHT22;19031;51.400;6.770;2023-07-20T12:04:51;31.40;51.70
32614;DHT22;19031;51.400;6.770;2023-07-20T12:07:21;31.70;51.50
32614;DHT22;19031;51.400;6.770;2023-07-20T12:12:31;30.90;55.50
32614;DHT22;19031;51.400;6.770;2023-07-20T12:15:11;30.70;55.10
32614;DHT22;19031;51.400;6.770;2023-07-20T12:17:41;30.10;54.90
32614;DHT22;19031;51.400;6.770;2023-07-20T12:20:07;29.00;54.90
32614;DHT22;19031;51.400;6.770;2023-07-20T12:22:37;28.40;59.80
32614;DHT22;19031;51.400;6.770;2023-07-20T12:25:05;28.50;62.20
32614;DHT22;19031;51.400;6.770;2023-07-20T12:27:30;28.20;57.40
32614;DHT22;19031;51.400;6.770;2023-07-20T12:29:56;27.30;61.80
32614;DHT22;19031;51.400;6.770;2023-07-20T12:32:22;27.00;59.80
32614;DHT22;19031;51.400;6.770;2023-07-20T12:34:48;26.50;61.40
32614;DHT22;19031;51.400;6.770;2023-07-20T12:37:13;26.50;66.20
32614;DHT22;19031;51.400;6.770;2023-07-20T12:39:39;26.00;65.10
32614;DHT22;19031;51.400;6.770;2023-07-20T12:42:06;26.50;66.00
32614;DHT22;19031;51.400;6.770;2023-07-20T12:44:31;26.50;63.60
32614;DHT22;19031;51.400;6.770;2023-07-20T12:46:57;26.50;64.50
32614;DHT22;19031;51.400;6.770;2023-07-20T12:49:22;26.40;63.60
32614;DHT22;19031;51.400;6.770;2023-07-20T12:51:47;26.50;62.40
32614;DHT22;19031;51.400;6.770;2023-07-20T12:54:13;26.60;64.80
32614;DHT22;19031;51.400;6.770;2023-07-20T12:56:38;26.60;64.70
32614;DHT22;19031;51.400;6.770;2023-07-20T12:59:04;26.30;64.40
32614;DHT22;19031;51.400;6.770;2023-07-20T13:01:31;26.40;64.20
32614;DHT22;19031;51.400;6.770;2023-07-20T13:03:57;26.30;63.70
32614;DHT22;19031;51.400;6.770;2023-07-20T13:06:22;26.10;64.30
32614;DHT22;19031;51.400;6.770;2023-07-20T13:08:48;26.20;63.70
32614;DHT22;19031;51.400;6.770;2023-07-20T13:11:16;26.30;66.40
32614;DHT22;19031;51.400;6.770;2023-07-20T13:13:41;26.00;62.90
32614;DHT22;19031;51.400;6.770;2023-07-20T13:16:06;26.30;66.00
32614;DHT22;19031;51.400;6.770;2023-07-20T13:18:32;26.20;63.50
32614;DHT22;19031;51.400;6.770;2023-07-20T13:20:57;26.20;67.70
32614;DHT22;19031;51.400;6.770;2023-07-20T13:23:23;26.40;65.30
32614;DHT22;19031;51.400;6.770;2023-07-20T13:25:48;26.50;65.00
32614;DHT22;19031;51.400;6.770;2023-07-20T13:28:14;26.20;66.30
32614;DHT22;19031;51.400;6.770;2023-07-20T13:30:39;26.30;66.60
32614;DHT22;19031;51.400;6.770;2023-07-20T13:33:05;26.60;65.30
32614;DHT22;19031;51.400;6.770;2023-07-20T13:35:30;27.10;65.00
32614;DHT22;19031;51.400;6.770;2023-07-20T13:37:55;27.20;62.40
32614;DHT22;19031;51.400;6.770;2023-07-20T13:40:21;27.10;64.20
32614;DHT22;19031;51.400;6.770;2023-07-20T13:42:48;27.10;63.40
32614;DHT22;19031;51.400;6.770;2023-07-20T13:45:13;27.00;63.90
32614;DHT22;19031;51.400;6.770;2023-07-20T13:47:39;26.80;62.30
32614;DHT22;19031;51.400;6.770;2023-07-20T13:50:04;26.90;63.70
32614;DHT22;19031;51.400;6.770;2023-07-20T13:52:30;26.60;62.20
32614;DHT22;19031;51.400;6.770;2023-07-20T13:54:55;26.40;62.70
32614;DHT22;19031;51.400;6.770;2023-07-20T13:57:21;26.40;61.40
32614;DHT22;19031;51.400;6.770;2023-07-20T13:59:46;26.50;63.60
32614;DHT22;19031;51.400;6.770;2023-07-20T14:02:13;26.40;62.50
32614;DHT22;19031;51.400;6.770;2023-07-20T14:04:39;26.20;62.40
32614;DHT22;19031;51.400;6.770;2023-07-20T14:07:05;26.30;65.00
32614;DHT22;19031;51.400;6.770;2023-07-20T14:09:30;26.60;65.40
32614;DHT22;19031;51.400;6.770;2023-07-20T14:11:56;27.20;61.90
32614;DHT22;19031;51.400;6.770;2023-07-20T14:14:21;27.30;61.10
32614;DHT22;19031;51.400;6.770;2023-07-20T14:16:47;28.00;63.50
32614;DHT22;19031;51.400;6.770;2023-07-20T14:19:12;28.70;61.20
32614;DHT22;19031;51.400;6.770;2023-07-20T14:21:38;28.90;59.20
32614;DHT22;19031;51.400;6.770;2023-07-20T14:24:03;29.00;58.60
32614;DHT22;19031;51.400;6.770;2023-07-20T14:26:29;29.20;57.90
32614;DHT22;19031;51.400;6.770;2023-07-20T14:28:54;28.90;57.80
32614;DHT22;19031;51.400;6.770;2023-07-20T14:31:20;29.20;58.00
32614;DHT22;19031;51.400;6.770;2023-07-20T14:33:46;29.60;59.50
32614;DHT22;19031;51.400;6.770;2023-07-20T14:36:11;29.80;57.50
32614;DHT22;19031;51.400;6.770;2023-07-20T14:38:37;30.00;59.10
32614;DHT22;19031;51.400;6.770;2023-07-20T14:41:02;29.80;56.60
32614;DHT22;19031;51.400;6.770;2023-07-20T14:43:28;30.00;57.00
32614;DHT22;19031;51.400;6.770;2023-07-20T14:45:53;30.70;58.30
32614;DHT22;19031;51.400;6.770;2023-07-20T14:48:20;30.70;55.60
32614;DHT22;19031;51.400;6.770;2023-07-20T14:50:45;30.50;57.20
32614;DHT22;19031;51.400;6.770;2023-07-20T14:53:15;30.40;55.60
32614;DHT22;19031;51.400;6.770;2023-07-20T14:55:41;30.10;57.20
32614;DHT22;19031;51.400;6.770;2023-07-20T14:58:07;29.90;55.20
32614;DHT22;19031;51.400;6.770;2023-07-20T15:00:32;29.90;57.20
32614;DHT22;19031;51.400;6.770;2023-07-20T15:02:58;29.60;56.70
32614;DHT22;19031;51.400;6.770;2023-07-20T15:05:23;29.60;56.60
32614;DHT22;19031;51.400;6.770;2023-07-20T15:07:49;29.40;57.80
32614;DHT22;19031;51.400;6.770;2023-07-20T15:10:15;29.30;60.00
32614;DHT22;19031;51.400;6.770;2023-07-20T15:12:40;29.30;55.70
32614;DHT22;19031;51.400;6.770;2023-07-20T15:15:06;28.70;59.10
32614;DHT22;19031;51.400;6.770;2023-07-20T15:17:32;28.50;56.70
32614;DHT22;19031;51.400;6.770;2023-07-20T15:19:58;27.70;56.90
32614;DHT22;19031;51.400;6.770;2023-07-20T15:22:24;27.70;60.70
32614;DHT22;19031;51.400;6.770;2023-07-20T15:24:50;27.90;61.50
32614;DHT22;19031;51.400;6.770;2023-07-20T15:27:15;28.10;59.10
32614;DHT22;19031;51.400;6.770;2023-07-20T15:29:41;28.00;60.30
32614;DHT22;19031;51.400;6.770;2023-07-20T15:32:06;28.00;57.20
32614;DHT22;19031;51.400;6.770;2023-07-20T15:34:33;27.70;61.80
32614;DHT22;19031;51.400;6.770;2023-07-20T15:36:58;27.70;60.00
32614;DHT22;19031;51.400;6.770;2023-07-20T15:39:24;27.00;60.10
32614;DHT22;19031;51.400;6.770;2023-07-20T15:41:50;27.10;61.20
32614;DHT22;19031;51.400;6.770;2023-07-20T15:44:15;27.00;62.70